createdAt,value
2023-01-17T00:01:39.969Z,98.27
2023-01-17T00:04:27.787Z,98.08
2023-01-17T00:07:16.542Z,98.78
2023-01-17T00:09:59.341Z,97.64
2023-01-17T00:12:30.996Z,98.50
2023-01-17T00:15:00.778Z,98.81
2023-01-17T00:17:40.383Z,98.35
2023-01-17T00:20:35.395Z,98.13
2023-01-17T00:23:28.130Z,98.77
2023-01-17T00:26:09.911Z,98.01
2023-01-17T00:28:40.644Z,98.39
2023-01-17T00:31:11.738Z,98.13
2023-01-17T00:33:56.161Z,97.94
2023-01-17T00:36:24.583Z,99.27
2023-01-17T00:38:52.594Z,98.03
2023-01-17T00:41:23.164Z,98.23
2023-01-17T00:44:12.836Z,99.56
2023-01-17T00:47:03.089Z,100.00
2023-01-17T00:50:01.826Z,99.36
2023-01-17T00:52:50.422Z,98.21
2023-01-17T00:55:41.559Z,98.55
2023-01-17T00:58:32.877Z,98.39
2023-01-17T01:01:30.301Z,98.30
2023-01-17T01:04:20.235Z,98.47
2023-01-17T01:07:11.875Z,97.59
2023-01-17T01:10:02.879Z,98.49
2023-01-17T01:12:52.276Z,99.01
2023-01-17T01:15:39.881Z,98.60
2023-01-17T01:18:29.999Z,98.26
2023-01-17T01:21:22.867Z,99.57
2023-01-17T01:24:19.602Z,98.85
2023-01-17T01:27:06.973Z,98.20
2023-01-17T01:29:57.653Z,98.38
2023-01-17T01:32:44.879Z,97.70
2023-01-17T01:35:20.088Z,97.68
2023-01-17T01:37:50.969Z,98.11
2023-01-17T01:40:33.670Z,97.67
2023-01-17T01:43:07.096Z,98.01
2023-01-17T01:45:41.493Z,96.90
2023-01-17T01:48:56.075Z,97.02
2023-01-17T01:51:30.284Z,97.66
2023-01-17T01:54:03.106Z,98.33
2023-01-17T01:56:39.861Z,98.94
2023-01-17T01:59:13.850Z,99.18
2023-01-17T02:01:44.976Z,99.25
2023-01-17T02:04:20.378Z,99.16
2023-01-17T02:06:52.292Z,98.77
2023-01-17T02:09:21.428Z,98.55
2023-01-17T02:11:52.265Z,98.13
2023-01-17T02:14:24.685Z,98.33
2023-01-17T02:17:07.409Z,99.08
2023-01-17T02:20:24.445Z,97.64
2023-01-17T02:23:32.791Z,99.63
2023-01-17T02:26:50.417Z,100.00
2023-01-17T02:29:56.172Z,99.54
2023-01-17T02:32:51.752Z,99.29
2023-01-17T02:35:32.143Z,100.00
2023-01-17T02:38:10.367Z,100.00
2023-01-17T02:40:43.104Z,100.00
2023-01-17T02:43:16.135Z,100.00
2023-01-17T02:45:45.654Z,100.00
2023-01-17T02:48:21.421Z,100.00
2023-01-17T02:51:25.688Z,99.69
2023-01-17T02:54:07.578Z,99.79
2023-01-17T02:56:49.862Z,100.00
2023-01-17T02:59:33.891Z,100.00
2023-01-17T03:02:11.871Z,100.00
2023-01-17T03:05:07.049Z,100.00
2023-01-17T03:07:42.384Z,100.00
2023-01-17T03:10:20.367Z,100.00
2023-01-17T03:12:48.739Z,100.00
2023-01-17T03:15:27.619Z,100.00
2023-01-17T03:18:03.556Z,100.00
2023-01-17T03:20:38.307Z,100.00
2023-01-17T03:23:19.012Z,100.00
2023-01-17T03:25:50.843Z,100.00
2023-01-17T03:28:19.005Z,100.00
2023-01-17T03:30:50.061Z,100.00
2023-01-17T03:33:23.817Z,100.00
2023-01-17T03:35:58.924Z,100.00
2023-01-17T03:38:30.487Z,100.00
2023-01-17T03:40:58.708Z,100.00
2023-01-17T03:43:36.427Z,100.00
2023-01-17T03:46:07.858Z,99.85
2023-01-17T03:48:42.150Z,100.00
2023-01-17T03:51:21.707Z,100.00
2023-01-17T03:53:55.659Z,100.00
2023-01-17T03:56:27.376Z,100.00
2023-01-17T03:59:00.105Z,99.77
2023-01-17T04:01:31.398Z,100.00
2023-01-17T04:04:03.172Z,100.00
2023-01-17T04:06:33.903Z,100.00
2023-01-17T04:09:02.708Z,100.00
2023-01-17T04:11:32.971Z,100.00
2023-01-17T04:14:09.342Z,100.00
2023-01-17T04:16:46.031Z,100.00
2023-01-17T04:19:18.493Z,100.00
2023-01-17T04:22:04.091Z,100.00
2023-01-17T04:24:37.303Z,100.00
2023-01-17T04:27:08.874Z,100.00
2023-01-17T04:29:46.814Z,100.00
2023-01-17T04:32:26.411Z,100.00
2023-01-17T04:34:57.130Z,100.00
2023-01-17T04:37:28.058Z,100.00
2023-01-17T04:40:00.167Z,100.00
2023-01-17T04:42:29.774Z,100.00
2023-01-17T04:44:58.945Z,100.00
2023-01-17T04:47:33.674Z,100.00
2023-01-17T04:50:12.165Z,100.00
2023-01-17T04:53:00.139Z,100.00
2023-01-17T04:55:38.416Z,100.00
2023-01-17T04:58:09.201Z,100.00
2023-01-17T05:00:39.834Z,99.94
2023-01-17T05:03:14.108Z,100.00
2023-01-17T05:05:45.341Z,99.68
2023-01-17T05:08:22.855Z,99.46
2023-01-17T05:10:54.138Z,99.72
2023-01-17T05:13:23.999Z,99.51
2023-01-17T05:15:55.109Z,99.66
2023-01-17T05:18:29.474Z,99.25
2023-01-17T05:21:08.069Z,99.57
2023-01-17T05:23:51.577Z,98.61
2023-01-17T05:26:23.349Z,98.75
2023-01-17T05:28:55.147Z,98.38
2023-01-17T05:31:26.262Z,98.52
2023-01-17T05:33:58.511Z,98.04
2023-01-17T05:36:32.680Z,99.32
2023-01-17T05:39:06.928Z,99.59
2023-01-17T05:41:35.785Z,99.35
2023-01-17T05:44:05.942Z,100.00
2023-01-17T05:46:35.386Z,100.00
2023-01-17T05:49:19.253Z,100.00
2023-01-17T05:51:56.119Z,100.00
2023-01-17T05:54:35.338Z,100.00
2023-01-17T05:57:03.834Z,100.00
2023-01-17T05:59:37.427Z,100.00
2023-01-17T06:02:05.853Z,100.00
2023-01-17T06:04:39.790Z,100.00
2023-01-17T06:07:13.880Z,100.00
2023-01-17T06:09:49.975Z,100.00
2023-01-17T06:12:22.072Z,100.00
2023-01-17T06:14:56.363Z,100.00
2023-01-17T06:17:27.003Z,100.00
2023-01-17T06:19:59.927Z,100.00
2023-01-17T06:22:36.291Z,100.00
2023-01-17T06:25:18.328Z,100.00
2023-01-17T06:27:47.445Z,100.00
2023-01-17T06:30:27.619Z,100.00
2023-01-17T06:33:04.809Z,100.00
2023-01-17T06:35:42.345Z,100.00
2023-01-17T06:38:16.408Z,100.00
2023-01-17T06:41:00.610Z,100.00
2023-01-17T06:43:36.173Z,100.00
2023-01-17T06:46:08.248Z,100.00
2023-01-17T06:48:36.900Z,99.73
2023-01-17T06:51:06.336Z,99.56
2023-01-17T06:53:37.254Z,99.55
2023-01-17T06:56:21.492Z,98.30
2023-01-17T06:58:51.077Z,98.37
2023-01-17T07:01:23.317Z,98.88
2023-01-17T07:03:54.575Z,97.74
2023-01-17T07:06:28.798Z,97.21
2023-01-17T07:09:01.728Z,97.66
2023-01-17T07:11:45.836Z,96.75
2023-01-17T07:14:26.228Z,96.55
2023-01-17T07:16:57.891Z,96.32
2023-01-17T07:19:32.064Z,97.65
2023-01-17T07:22:01.317Z,97.25
2023-01-17T07:24:30.123Z,97.22
2023-01-17T07:27:15.741Z,96.53
2023-01-17T07:29:46.678Z,96.02
2023-01-17T07:32:18.466Z,95.50
2023-01-17T07:34:48.095Z,94.30
2023-01-17T07:37:20.051Z,94.06
2023-01-17T07:39:57.134Z,94.67
2023-01-17T07:42:32.214Z,94.04
2023-01-17T07:45:05.264Z,93.15
2023-01-17T07:47:35.795Z,92.95
2023-01-17T07:50:06.097Z,93.14
2023-01-17T07:52:35.030Z,92.35
2023-01-17T07:55:12.493Z,91.54
2023-01-17T07:57:44.651Z,89.40
2023-01-17T08:00:21.902Z,90.17
2023-01-17T08:03:00.383Z,89.84
2023-01-17T08:05:31.071Z,89.29
2023-01-17T08:08:10.079Z,88.69
2023-01-17T08:10:40.365Z,88.32
2023-01-17T08:13:17.629Z,87.81
2023-01-17T08:15:50.068Z,87.31
2023-01-17T08:18:22.591Z,87.54
2023-01-17T08:20:54.824Z,86.57
2023-01-17T08:23:23.143Z,85.57
2023-01-17T08:25:55.156Z,84.98
2023-01-17T08:28:27.630Z,84.32
2023-01-17T08:31:02.598Z,83.63
2023-01-17T08:33:44.948Z,83.26
2023-01-17T08:36:14.509Z,82.75
2023-01-17T08:38:46.423Z,82.89
2023-01-17T08:41:22.659Z,81.78
2023-01-17T08:44:06.850Z,82.54
2023-01-17T08:46:35.444Z,83.07
2023-01-17T08:49:03.889Z,82.38
2023-01-17T08:51:35.959Z,82.67
2023-01-17T08:54:13.108Z,82.98
2023-01-17T08:56:45.529Z,82.63
2023-01-17T08:59:21.170Z,82.03
2023-01-17T09:01:52.619Z,82.08
2023-01-17T09:04:24.385Z,81.98
2023-01-17T09:06:57.740Z,81.44
2023-01-17T09:09:27.387Z,81.72
2023-01-17T09:11:56.709Z,81.11
2023-01-17T09:14:33.318Z,80.71
2023-01-17T09:17:05.755Z,79.60
2023-01-17T09:19:39.268Z,79.46
2023-01-17T09:22:10.695Z,79.33
2023-01-17T09:24:39.466Z,79.65
2023-01-17T09:27:09.139Z,79.54
2023-01-17T09:29:44.461Z,80.96
2023-01-17T09:32:19.251Z,80.52
2023-01-17T09:34:50.836Z,80.88
2023-01-17T09:37:29.151Z,80.53
2023-01-17T09:39:59.105Z,82.27
2023-01-17T09:42:36.930Z,82.34
2023-01-17T09:45:14.890Z,81.73
2023-01-17T09:47:45.584Z,81.29
2023-01-17T09:50:32.663Z,80.31
2023-01-17T09:53:11.960Z,79.98
2023-01-17T09:55:54.487Z,79.63
2023-01-17T09:58:27.841Z,79.54
2023-01-17T10:01:06.656Z,79.62
2023-01-17T10:03:49.955Z,79.65
2023-01-17T10:06:27.956Z,79.98
2023-01-17T10:09:12.885Z,78.90
2023-01-17T10:11:54.127Z,78.20
2023-01-17T10:14:52.826Z,78.15
2023-01-17T10:17:42.527Z,77.86
2023-01-17T10:20:34.914Z,77.37
2023-01-17T10:23:22.177Z,77.45
2023-01-17T10:25:52.471Z,77.11
2023-01-17T10:28:26.429Z,76.95
2023-01-17T10:31:04.273Z,76.89
2023-01-17T10:33:41.776Z,76.38
2023-01-17T10:36:18.446Z,75.66
2023-01-17T10:38:56.245Z,74.76
2023-01-17T10:41:35.171Z,74.62
2023-01-17T10:44:12.848Z,75.71
2023-01-17T10:46:49.542Z,75.08
2023-01-17T10:49:25.847Z,74.48
2023-01-17T10:52:06.115Z,74.48
2023-01-17T10:54:54.705Z,74.74
2023-01-17T10:57:26.113Z,74.41
2023-01-17T11:00:04.552Z,74.37
2023-01-17T11:02:45.414Z,74.69
2023-01-17T11:05:43.541Z,74.97
2023-01-17T11:08:22.942Z,75.38
2023-01-17T11:10:55.285Z,75.97
2023-01-17T11:13:27.374Z,76.61
2023-01-17T11:16:01.605Z,77.42
2023-01-17T11:18:32.939Z,76.10
2023-01-17T11:21:21.234Z,76.44
2023-01-17T11:23:54.852Z,75.81
2023-01-17T11:26:25.593Z,75.87
2023-01-17T11:28:56.011Z,74.92
2023-01-17T11:31:29.608Z,74.42
2023-01-17T11:34:18.741Z,74.10
2023-01-17T11:37:11.761Z,74.25
2023-01-17T11:39:42.498Z,73.92
2023-01-17T11:42:38.315Z,73.28
2023-01-17T11:45:26.666Z,72.97
2023-01-17T11:48:23.446Z,72.67
2023-01-17T11:50:59.747Z,72.19
2023-01-17T11:53:38.085Z,70.71
2023-01-17T11:56:09.975Z,70.69
2023-01-17T11:58:41.437Z,69.49
2023-01-17T12:01:38.099Z,68.90
2023-01-17T12:04:29.330Z,69.52
2023-01-17T12:07:10.969Z,70.10
2023-01-17T12:10:02.617Z,68.65
2023-01-17T12:13:01.830Z,70.30
2023-01-17T12:15:46.690Z,70.84
2023-01-17T12:18:40.562Z,70.63
2023-01-17T12:21:18.910Z,70.80
2023-01-17T12:24:15.150Z,70.47
2023-01-17T12:26:53.749Z,69.95
2023-01-17T12:29:45.919Z,70.89
2023-01-17T12:33:16.609Z,71.73
2023-01-17T12:35:48.242Z,72.33
2023-01-17T12:38:32.187Z,72.75
2023-01-17T12:41:09.812Z,72.33
2023-01-17T12:43:42.631Z,71.75
2023-01-17T12:46:21.433Z,71.03
2023-01-17T12:48:55.162Z,70.93
2023-01-17T12:51:33.270Z,70.73
2023-01-17T12:54:09.916Z,70.92
2023-01-17T12:56:46.433Z,71.35
2023-01-17T12:59:33.582Z,71.99
2023-01-17T13:02:17.393Z,72.96
2023-01-17T13:04:58.390Z,73.60
2023-01-17T13:07:38.992Z,73.92
2023-01-17T13:10:22.303Z,76.05
2023-01-17T13:12:51.633Z,76.40
2023-01-17T13:15:31.599Z,76.29
2023-01-17T13:18:05.246Z,76.91
2023-01-17T13:20:47.575Z,77.27
2023-01-17T13:23:29.607Z,77.38
2023-01-17T13:26:08.089Z,78.85
2023-01-17T13:29:08.748Z,77.77
2023-01-17T13:31:49.520Z,78.36
2023-01-17T13:34:36.389Z,78.93
2023-01-17T13:37:20.112Z,80.00
2023-01-17T13:40:24.779Z,79.05
2023-01-17T13:42:57.407Z,79.83
2023-01-17T13:45:32.103Z,80.70
2023-01-17T13:48:48.543Z,80.99
2023-01-17T13:51:19.888Z,81.66
2023-01-17T13:53:58.634Z,82.11
2023-01-17T13:56:33.003Z,80.95
2023-01-17T13:59:18.124Z,80.69
2023-01-17T14:02:35.230Z,81.89
2023-01-17T14:05:15.264Z,82.45
2023-01-17T14:07:48.652Z,81.83
2023-01-17T14:10:32.333Z,81.78
2023-01-17T14:13:10.328Z,82.73
2023-01-17T14:15:49.925Z,84.10
2023-01-17T14:18:38.536Z,82.86
2023-01-17T14:21:17.100Z,83.54
2023-01-17T14:24:18.408Z,83.11
2023-01-17T14:26:56.273Z,82.41
2023-01-17T14:30:00.311Z,83.42
2023-01-17T14:32:36.492Z,83.11
2023-01-17T14:35:26.953Z,81.94
2023-01-17T14:38:03.173Z,82.92
2023-01-17T14:40:37.911Z,83.66
2023-01-17T14:43:18.686Z,83.42
2023-01-17T14:45:57.453Z,85.08
2023-01-17T14:48:27.512Z,85.96
2023-01-17T14:51:02.976Z,85.27
2023-01-17T14:53:41.183Z,86.68
2023-01-17T14:56:18.053Z,88.21
2023-01-17T14:58:48.825Z,88.41
2023-01-17T15:01:21.255Z,90.03
2023-01-17T15:03:53.774Z,90.53
2023-01-17T15:06:35.212Z,91.48
2023-01-17T15:09:12.741Z,92.37
2023-01-17T15:11:53.164Z,93.12
2023-01-17T15:14:26.866Z,92.33
2023-01-17T15:16:56.363Z,92.75
2023-01-17T15:19:25.455Z,92.75
2023-01-17T15:21:55.473Z,92.91
2023-01-17T15:24:34.854Z,93.68
2023-01-17T15:27:06.576Z,94.43
2023-01-17T15:29:41.605Z,93.92
2023-01-17T15:32:21.242Z,94.71
2023-01-17T15:35:04.729Z,93.62
2023-01-17T15:37:43.403Z,95.48
2023-01-17T15:40:26.945Z,95.27
2023-01-17T15:43:09.444Z,95.41
2023-01-17T15:45:40.277Z,95.72
2023-01-17T15:48:38.521Z,97.61
2023-01-17T15:51:08.305Z,98.21
2023-01-17T15:53:47.878Z,98.48
2023-01-17T15:56:33.625Z,99.26
2023-01-17T15:59:24.305Z,99.38
2023-01-17T16:02:02.931Z,98.85
2023-01-17T16:04:37.348Z,100.00
2023-01-17T16:07:20.896Z,100.00
2023-01-17T16:09:55.092Z,100.00
2023-01-17T16:12:28.843Z,99.92
2023-01-17T16:15:11.977Z,100.00
2023-01-17T16:17:46.464Z,100.00
2023-01-17T16:20:29.967Z,100.00
2023-01-17T16:23:07.515Z,100.00
2023-01-17T16:25:37.024Z,100.00
2023-01-17T16:28:10.373Z,100.00
2023-01-17T16:30:39.496Z,100.00
2023-01-17T16:33:11.394Z,100.00
2023-01-17T16:35:40.434Z,100.00
2023-01-17T16:38:12.678Z,100.00
2023-01-17T16:40:52.938Z,100.00
2023-01-17T16:43:31.419Z,100.00
2023-01-17T16:46:04.709Z,100.00
2023-01-17T16:48:34.588Z,100.00
2023-01-17T16:51:12.440Z,100.00
2023-01-17T16:53:53.151Z,100.00
2023-01-17T16:56:24.632Z,100.00
2023-01-17T16:59:08.980Z,99.58
2023-01-17T17:01:39.450Z,100.00
2023-01-17T17:04:10.864Z,100.00
2023-01-17T17:06:52.524Z,100.00
2023-01-17T17:09:31.764Z,100.00
2023-01-17T17:12:00.700Z,100.00
2023-01-17T17:14:38.326Z,100.00
2023-01-17T17:17:11.069Z,100.00
2023-01-17T17:19:45.351Z,100.00
2023-01-17T17:22:14.095Z,100.00
2023-01-17T17:24:48.288Z,100.00
2023-01-17T17:27:30.680Z,100.00
2023-01-17T17:30:15.171Z,100.00
2023-01-17T17:32:55.710Z,100.00
2023-01-17T17:35:27.181Z,100.00
2023-01-17T17:38:09.657Z,100.00
2023-01-17T17:40:51.965Z,100.00
2023-01-17T17:43:29.693Z,100.00
2023-01-17T17:46:11.166Z,100.00
2023-01-17T17:48:48.617Z,100.00
2023-01-17T17:51:26.717Z,100.00
2023-01-17T17:54:03.300Z,100.00
2023-01-17T17:56:46.623Z,100.00
2023-01-17T17:59:26.000Z,100.00
2023-01-17T18:02:14.553Z,100.00
2023-01-17T18:04:56.587Z,100.00
2023-01-17T18:07:27.657Z,100.00
2023-01-17T18:09:59.440Z,100.00
2023-01-17T18:12:32.428Z,100.00
2023-01-17T18:15:03.867Z,100.00
2023-01-17T18:17:53.213Z,100.00
2023-01-17T18:20:52.028Z,100.00
2023-01-17T18:23:29.693Z,100.00
2023-01-17T18:26:03.968Z,100.00
2023-01-17T18:28:39.090Z,100.00
2023-01-17T18:31:12.328Z,100.00
2023-01-17T18:34:00.423Z,100.00
2023-01-17T18:36:43.701Z,100.00
2023-01-17T18:39:25.671Z,100.00
2023-01-17T18:42:05.660Z,100.00
2023-01-17T18:44:36.667Z,100.00
2023-01-17T18:47:07.189Z,100.00
2023-01-17T18:49:40.738Z,100.00
2023-01-17T18:52:19.013Z,100.00
2023-01-17T18:54:51.351Z,100.00
2023-01-17T18:57:26.920Z,100.00
2023-01-17T19:00:21.138Z,100.00
2023-01-17T19:03:05.628Z,100.00
2023-01-17T19:05:43.059Z,100.00
2023-01-17T19:08:29.215Z,100.00
2023-01-17T19:11:00.995Z,100.00
2023-01-17T19:13:34.416Z,100.00
2023-01-17T19:16:24.628Z,100.00
2023-01-17T19:18:56.296Z,100.00
2023-01-17T19:21:31.860Z,100.00
2023-01-17T19:24:11.495Z,100.00
2023-01-17T19:26:45.870Z,100.00
2023-01-17T19:29:20.382Z,100.00
2023-01-17T19:32:02.605Z,100.00
2023-01-17T19:34:41.604Z,100.00
2023-01-17T19:37:34.199Z,100.00
2023-01-17T19:40:24.331Z,100.00
2023-01-17T19:42:54.338Z,100.00
2023-01-17T19:45:27.864Z,100.00
2023-01-17T19:48:18.660Z,100.00
2023-01-17T19:53:40.737Z,100.00
2023-01-17T19:56:15.039Z,100.00
2023-01-17T19:58:47.568Z,100.00
2023-01-17T20:01:20.243Z,100.00
2023-01-17T20:03:57.937Z,100.00
2023-01-17T20:06:47.433Z,100.00
2023-01-17T20:09:38.361Z,100.00
2023-01-17T20:12:22.303Z,100.00
2023-01-17T20:15:00.719Z,100.00
2023-01-17T20:17:48.656Z,100.00
2023-01-17T20:20:36.893Z,100.00
2023-01-17T20:23:12.375Z,100.00
2023-01-17T20:26:11.733Z,100.00
2023-01-17T20:28:51.597Z,100.00
2023-01-17T20:31:23.869Z,100.00
2023-01-17T20:34:05.821Z,100.00
2023-01-17T20:36:38.425Z,100.00
2023-01-17T20:39:22.320Z,100.00
2023-01-17T20:42:08.026Z,100.00
2023-01-17T20:44:53.697Z,100.00
2023-01-17T20:47:32.207Z,100.00
2023-01-17T20:50:14.259Z,100.00
2023-01-17T20:52:56.366Z,100.00
2023-01-17T20:55:50.270Z,100.00
2023-01-17T20:58:39.510Z,100.00
2023-01-17T21:01:12.541Z,100.00
2023-01-17T21:03:50.003Z,100.00
2023-01-17T21:06:27.538Z,100.00
2023-01-17T21:09:04.723Z,100.00
2023-01-17T21:11:44.525Z,100.00
2023-01-17T21:14:18.873Z,100.00
2023-01-17T21:16:50.850Z,100.00
2023-01-17T21:19:21.464Z,100.00
2023-01-17T21:21:55.938Z,100.00
2023-01-17T21:24:32.487Z,100.00
2023-01-17T21:27:04.002Z,100.00
2023-01-17T21:29:46.558Z,100.00
2023-01-17T21:32:21.818Z,100.00
2023-01-17T21:34:53.111Z,100.00
2023-01-17T21:37:22.164Z,100.00
2023-01-17T21:39:54.927Z,100.00
2023-01-17T21:42:25.821Z,100.00
2023-01-17T21:45:03.411Z,100.00
2023-01-17T21:47:47.581Z,100.00
2023-01-17T21:50:32.475Z,100.00
2023-01-17T21:53:07.779Z,100.00
2023-01-17T21:55:54.578Z,100.00
2023-01-17T21:58:41.361Z,100.00
2023-01-17T22:01:21.682Z,100.00
2023-01-17T22:03:58.961Z,100.00
2023-01-17T22:06:31.060Z,100.00
2023-01-17T22:09:02.558Z,100.00
2023-01-17T22:11:40.125Z,100.00
2023-01-17T22:14:12.879Z,100.00
2023-01-17T22:16:46.856Z,100.00
2023-01-17T22:19:26.074Z,100.00
2023-01-17T22:21:55.350Z,100.00
2023-01-17T22:24:30.785Z,100.00
2023-01-17T22:27:02.919Z,100.00
2023-01-17T22:29:36.095Z,100.00
2023-01-17T22:32:09.858Z,100.00
2023-01-17T22:34:48.298Z,100.00
2023-01-17T22:37:18.656Z,100.00
2023-01-17T22:39:49.771Z,100.00
2023-01-17T22:42:24.900Z,100.00
2023-01-17T22:44:55.796Z,100.00
2023-01-17T22:47:42.675Z,100.00
2023-01-17T22:50:12.322Z,100.00
2023-01-17T22:52:49.588Z,100.00
2023-01-17T22:55:22.403Z,100.00
2023-01-17T22:57:53.555Z,100.00
2023-01-17T23:00:27.473Z,100.00
2023-01-17T23:03:06.339Z,100.00
2023-01-17T23:05:35.398Z,100.00
2023-01-17T23:08:13.204Z,100.00
2023-01-17T23:11:03.680Z,100.00
2023-01-17T23:13:35.904Z,100.00
2023-01-17T23:16:28.445Z,100.00
2023-01-17T23:19:22.597Z,100.00
2023-01-17T23:22:11.890Z,100.00
2023-01-17T23:24:44.119Z,100.00
2023-01-17T23:27:34.454Z,100.00
2023-01-17T23:30:04.632Z,100.00
2023-01-17T23:32:35.644Z,100.00
2023-01-17T23:35:23.433Z,100.00
2023-01-17T23:38:14.017Z,100.00
2023-01-17T23:41:04.451Z,100.00
2023-01-17T23:43:32.338Z,100.00
2023-01-17T23:46:07.819Z,100.00
2023-01-17T23:48:36.313Z,100.00
2023-01-17T23:51:08.648Z,100.00
2023-01-17T23:53:41.187Z,100.00
2023-01-17T23:56:17.393Z,100.00
2023-01-17T23:58:46.857Z,100.00
